F/V Anna Mamm Mari — FOHD — position and weather

sailwx.info

Track history (hours):
 
Tides and Currents Weather Stations Pressure Air Temp Water Temp Dewpoint Dewpoint Depression Visibility Wind Speed Wind Dir Waves Ship Positions

F/V Anna Mamm Mari

Last reported at 2017-May-28 09:41 UTC. Time now 2017-May-29 15:17 UTC.
Position N 46°48' W 003°02'.

Length 17 m.

Type: Fishing. MMSI: 228393000.

Date/timePositionNaut miles runAvg speedWind from/ knotsBaromVisibWave heightAir tempDewpointWater temp
2017-May-28 09:41N 46°48' W 003°02'1 2.5
2017-May-28 09:28N 46°48' W 003°02'24 4.8
2017-May-28 04:26N 46°59' W 002°30'4 8.3
2017-May-28 03:59N 46°60' W 002°25'4 8.4
2017-May-28 03:30N 47°02' W 002°20'1 2.3
2017-May-28 03:00N 47°02' W 002°18'0 0.0
2017-May-28 02:30N 47°02' W 002°18'0 0.0
2017-May-28 01:57N 47°02' W 002°18'0 0.0
2017-May-28 01:30N 47°02' W 002°18'0 0.0
2017-May-28 00:24N 47°02' W 002°18'0 0.0
2017-May-28 00:00N 47°02' W 002°18'0 0.0
2017-May-27 23:30N 47°02' W 002°18'0 0.0
2017-May-27 22:40N 47°02' W 002°18'0 0.0
2017-May-27 22:30N 47°02' W 002°18'0 0.0
2017-May-27 22:00N 47°02' W 002°18'0 0.0
2017-May-27 21:13N 47°02' W 002°18'0 0.0
2017-May-27 20:54N 47°02' W 002°18'0 0.0
2017-May-27 20:30N 47°02' W 002°18'0 0.0
2017-May-27 19:57N 47°02' W 002°18'0 0.0
2017-May-27 19:27N 47°02' W 002°18'0 0.1
2017-May-27 15:10N 47°02' W 002°18'38 1.9
2017-May-26 19:25N 47°01' W 003°14'0 0.0
2017-May-26 19:00N 47°01' W 003°14'0 0.2
2017-May-26 18:30N 47°01' W 003°14'0 0.3
2017-May-26 18:00N 47°01' W 003°14'0 0.2
2017-May-26 17:30N 47°01' W 003°14'0 0.2
2017-May-26 17:00N 47°01' W 003°14'0 0.1
2017-May-26 16:29N 47°01' W 003°14'0 0.0
2017-May-26 15:14N 47°01' W 003°14'3 0.1
2017-May-25 08:22N 47°04' W 003°14'1 1.9
2017-May-25 07:53N 47°05' W 003°14'1 1.1
2017-May-25 07:14N 47°04' W 003°14'1 1.8
2017-May-25 06:44N 47°03' W 003°13'0 1.3
2017-May-25 06:30N 47°03' W 003°13'1 2.1
2017-May-25 06:00N 47°04' W 003°13'0 0.7
2017-May-25 05:28N 47°05' W 003°13'1 2.0
2017-May-25 05:00N 47°04' W 003°13'0 0.5
2017-May-25 04:09N 47°04' W 003°12'0 1.4
2017-May-25 04:00N 47°04' W 003°12'0 0.0
2017-May-25 03:22N 47°04' W 003°12'0 0.0
2017-May-25 02:59N 47°04' W 003°12'0 0.0
2017-May-25 02:26N 47°04' W 003°12'0 0.0
2017-May-25 01:56N 47°04' W 003°12'0 0.0
2017-May-25 01:30N 47°04' W 003°12'0 0.0
2017-May-25 01:00N 47°04' W 003°12'0 0.0
2017-May-25 00:30N 47°04' W 003°12'0 0.1
2017-May-24 23:59N 47°04' W 003°12'0 0.0
2017-May-24 23:30N 47°04' W 003°12'0 0.0
2017-May-24 23:00N 47°04' W 003°12'0 0.0
2017-May-24 22:29N 47°04' W 003°12'0 0.0
2017-May-24 21:54N 47°04' W 003°12'37 2.8
2017-May-24 08:27N 47°02' W 002°18'0 0.0
2017-May-24 07:54N 47°02' W 002°18'0 0.0
2017-May-24 07:28N 47°02' W 002°18'0 0.0
2017-May-24 07:00N 47°02' W 002°18'0 0.0
2017-May-24 05:45N 47°02' W 002°18'0 0.0
2017-May-24 05:30N 47°02' W 002°18'0 0.0
2017-May-24 04:58N 47°02' W 002°18'0 0.0
2017-May-24 03:53N 47°02' W 002°18'0 0.0
2017-May-24 03:28N 47°02' W 002°18'0 0.0
2017-May-24 03:00N 47°02' W 002°18'0 0.0
2017-May-24 02:30N 47°02' W 002°18'0 0.0
2017-May-24 02:00N 47°02' W 002°18'0 0.0
2017-May-24 01:30N 47°02' W 002°18'0 0.0
2017-May-24 00:56N 47°02' W 002°18'0 0.0
2017-May-23 23:46N 47°02' W 002°18'0 0.0
2017-May-23 23:30N 47°02' W 002°18'0 0.0
2017-May-23 23:00N 47°02' W 002°18'0 0.0
2017-May-23 22:30N 47°02' W 002°18'0 0.0
2017-May-23 21:39N 47°02' W 002°18'0 0.0
2017-May-23 21:23N 47°02' W 002°18'0 0.0
2017-May-23 17:50N 47°01' W 002°18'0 0.0
2017-May-23 17:27N 47°01' W 002°18'0 0.0
2017-May-23 17:00N 47°01' W 002°18'1 0.7
2017-May-23 16:07N 47°02' W 002°18'1 4.4
2017-May-23 16:00N 47°02' W 002°19'4 7.4
2017-May-23 15:29N 47°02' W 002°25'4 8.3
2017-May-23 14:58N 47°01' W 002°31'5 8.7
2017-May-23 14:24N 47°02' W 002°38'10 8.8
2017-May-23 13:15N 47°02' W 002°53'4 8.8
2017-May-23 12:45N 47°02' W 002°59'10 5.1
2017-May-23 10:43N 47°04' W 003°14'1 6.5
2017-May-23 10:30N 47°03' W 003°14'0 0.7
2017-May-23 09:59N 47°03' W 003°14'0 0.2
2017-May-23 08:03N 47°03' W 003°14'0 1.9
2017-May-23 07:49N 47°02' W 003°14'0 0.4
2017-May-23 07:14N 47°03' W 003°14'0 1.4
2017-May-23 06:57N 47°03' W 003°14'1 1.7
2017-May-23 06:07N 47°04' W 003°15'0 1.5
2017-May-23 05:55N 47°05' W 003°14'1 2.0
2017-May-23 05:26N 47°04' W 003°14'1 1.3
2017-May-23 04:56N 47°03' W 003°13'1 2.0
2017-May-23 04:25N 47°04' W 003°14'1 1.5
2017-May-23 03:54N 47°05' W 003°14'1 1.6
2017-May-23 03:17N 47°04' W 003°13'1 1.9
2017-May-23 02:49N 47°03' W 003°13'1 1.7
2017-May-23 02:20N 47°02' W 003°12'3 8.1
2017-May-23 01:57N 47°03' W 003°07'4 8.4
2017-May-23 01:27N 47°02' W 003°01'4 8.2
2017-May-23 00:57N 47°02' W 002°55'25 6.6
2017-May-22 21:05N 47°01' W 002°18'0 0.0
2017-May-22 21:00N 47°01' W 002°18'0 0.0
2017-May-22 20:30N 47°01' W 002°18'0 0.0
2017-May-22 19:51N 47°01' W 002°18'0 0.0
2017-May-22 19:23N 47°01' W 002°18'0 0.0
2017-May-22 18:50N 47°01' W 002°18'0 0.0
2017-May-22 18:03N 47°01' W 002°18'0 0.0
2017-May-22 18:00N 47°01' W 002°18'0 0.0
2017-May-22 17:22N 47°01' W 002°18'0 0.0
2017-May-22 16:20N 47°01' W 002°18'0 0.0
2017-May-22 15:58N 47°01' W 002°18'0 0.0
2017-May-22 15:27N 47°01' W 002°18'0 0.0
2017-May-22 13:51N 47°01' W 002°18'1 0.2
2017-May-22 10:52N 47°02' W 002°18'3 9.1
2017-May-22 10:30N 47°01' W 002°22'510.1
2017-May-22 10:00N 46°60' W 002°30'610.1
2017-May-22 09:24N 46°58' W 002°38'23 9.7
2017-May-22 07:01N 46°52' W 003°11'1 9.5
2017-May-22 06:55N 46°52' W 003°12'1 0.4
2017-May-22 03:59N 46°51' W 003°13'13 0.8
2017-May-21 12:09N 47°04' W 003°13'1 0.3
2017-May-21 09:29N 47°05' W 003°14'1 0.8
2017-May-21 08:13N 47°03' W 003°14'3 0.8
2017-May-21 05:04N 47°06' W 003°16'0 0.0
2017-May-21 04:55N 47°06' W 003°16'0 0.0
2017-May-21 03:55N 47°06' W 003°16'0 0.0
2017-May-21 02:46N 47°06' W 003°16'40 1.6
2017-May-20 01:55N 47°02' W 002°18'0 0.6
2017-May-20 01:25N 47°01' W 002°18'0 0.0
2017-May-20 00:58N 47°01' W 002°18'0 0.0
2017-May-20 00:30N 47°02' W 002°18'0 0.0
2017-May-19 23:58N 47°01' W 002°18'0 0.0
2017-May-19 23:24N 47°01' W 002°18'0 0.0
2017-May-19 22:58N 47°01' W 002°18'0 0.0
2017-May-19 22:30N 47°01' W 002°18'0 0.0
2017-May-19 21:30N 47°01' W 002°18'0 0.0
2017-May-19 20:52N 47°01' W 002°18'0 0.0
2017-May-19 20:27N 47°01' W 002°18'0 0.0
2017-May-19 19:58N 47°01' W 002°18'0 0.0
2017-May-19 19:00N 47°02' W 002°18'  
Track history (hours):
 
Tides and Currents Weather Stations Pressure Air Temp Water Temp Dewpoint Dewpoint Depression Visibility Wind Speed Wind Dir Waves Ship Positions

F/V Anna Mamm Mari

Last reported at 2017-May-28 09:41 UTC. Time now 2017-May-29 15:17 UTC.
Position N 46°48' W 003°02'.

Length 17 m.

Type: Fishing. MMSI: 228393000.

Date/timePositionNaut miles runAvg speedWind from/ knotsBaromVisibWave heightAir tempDewpointWater temp
2017-May-28 09:41N 46°48' W 003°02'1 2.5
2017-May-28 09:28N 46°48' W 003°02'24 4.8
2017-May-28 04:26N 46°59' W 002°30'4 8.3
2017-May-28 03:59N 46°60' W 002°25'4 8.4
2017-May-28 03:30N 47°02' W 002°20'1 2.3
2017-May-28 03:00N 47°02' W 002°18'0 0.0
2017-May-28 02:30N 47°02' W 002°18'0 0.0
2017-May-28 01:57N 47°02' W 002°18'0 0.0
2017-May-28 01:30N 47°02' W 002°18'0 0.0
2017-May-28 00:24N 47°02' W 002°18'0 0.0
2017-May-28 00:00N 47°02' W 002°18'0 0.0
2017-May-27 23:30N 47°02' W 002°18'0 0.0
2017-May-27 22:40N 47°02' W 002°18'0 0.0
2017-May-27 22:30N 47°02' W 002°18'0 0.0
2017-May-27 22:00N 47°02' W 002°18'0 0.0
2017-May-27 21:13N 47°02' W 002°18'0 0.0
2017-May-27 20:54N 47°02' W 002°18'0 0.0
2017-May-27 20:30N 47°02' W 002°18'0 0.0
2017-May-27 19:57N 47°02' W 002°18'0 0.0
2017-May-27 19:27N 47°02' W 002°18'0 0.1
2017-May-27 15:10N 47°02' W 002°18'38 1.9
2017-May-26 19:25N 47°01' W 003°14'0 0.0
2017-May-26 19:00N 47°01' W 003°14'0 0.2
2017-May-26 18:30N 47°01' W 003°14'0 0.3
2017-May-26 18:00N 47°01' W 003°14'0 0.2
2017-May-26 17:30N 47°01' W 003°14'0 0.2
2017-May-26 17:00N 47°01' W 003°14'0 0.1
2017-May-26 16:29N 47°01' W 003°14'0 0.0
2017-May-26 15:14N 47°01' W 003°14'3 0.1
2017-May-25 08:22N 47°04' W 003°14'1 1.9
2017-May-25 07:53N 47°05' W 003°14'1 1.1
2017-May-25 07:14N 47°04' W 003°14'1 1.8
2017-May-25 06:44N 47°03' W 003°13'0 1.3
2017-May-25 06:30N 47°03' W 003°13'1 2.1
2017-May-25 06:00N 47°04' W 003°13'0 0.7
2017-May-25 05:28N 47°05' W 003°13'1 2.0
2017-May-25 05:00N 47°04' W 003°13'0 0.5
2017-May-25 04:09N 47°04' W 003°12'0 1.4
2017-May-25 04:00N 47°04' W 003°12'0 0.0
2017-May-25 03:22N 47°04' W 003°12'0 0.0
2017-May-25 02:59N 47°04' W 003°12'0 0.0
2017-May-25 02:26N 47°04' W 003°12'0 0.0
2017-May-25 01:56N 47°04' W 003°12'0 0.0
2017-May-25 01:30N 47°04' W 003°12'0 0.0
2017-May-25 01:00N 47°04' W 003°12'0 0.0
2017-May-25 00:30N 47°04' W 003°12'0 0.1
2017-May-24 23:59N 47°04' W 003°12'0 0.0
2017-May-24 23:30N 47°04' W 003°12'0 0.0
2017-May-24 23:00N 47°04' W 003°12'0 0.0
2017-May-24 22:29N 47°04' W 003°12'0 0.0
2017-May-24 21:54N 47°04' W 003°12'37 2.8
2017-May-24 08:27N 47°02' W 002°18'0 0.0
2017-May-24 07:54N 47°02' W 002°18'0 0.0
2017-May-24 07:28N 47°02' W 002°18'0 0.0
2017-May-24 07:00N 47°02' W 002°18'0 0.0
2017-May-24 05:45N 47°02' W 002°18'0 0.0
2017-May-24 05:30N 47°02' W 002°18'0 0.0
2017-May-24 04:58N 47°02' W 002°18'0 0.0
2017-May-24 03:53N 47°02' W 002°18'0 0.0
2017-May-24 03:28N 47°02' W 002°18'0 0.0
2017-May-24 03:00N 47°02' W 002°18'0 0.0
2017-May-24 02:30N 47°02' W 002°18'0 0.0
2017-May-24 02:00N 47°02' W 002°18'0 0.0
2017-May-24 01:30N 47°02' W 002°18'0 0.0
2017-May-24 00:56N 47°02' W 002°18'0 0.0
2017-May-23 23:46N 47°02' W 002°18'0 0.0
2017-May-23 23:30N 47°02' W 002°18'0 0.0
2017-May-23 23:00N 47°02' W 002°18'0 0.0
2017-May-23 22:30N 47°02' W 002°18'0 0.0
2017-May-23 21:39N 47°02' W 002°18'0 0.0
2017-May-23 21:23N 47°02' W 002°18'0 0.0
2017-May-23 17:50N 47°01' W 002°18'0 0.0
2017-May-23 17:27N 47°01' W 002°18'0 0.0
2017-May-23 17:00N 47°01' W 002°18'1 0.7
2017-May-23 16:07N 47°02' W 002°18'1 4.4
2017-May-23 16:00N 47°02' W 002°19'4 7.4
2017-May-23 15:29N 47°02' W 002°25'4 8.3
2017-May-23 14:58N 47°01' W 002°31'5 8.7
2017-May-23 14:24N 47°02' W 002°38'10 8.8
2017-May-23 13:15N 47°02' W 002°53'4 8.8
2017-May-23 12:45N 47°02' W 002°59'10 5.1
2017-May-23 10:43N 47°04' W 003°14'1 6.5
2017-May-23 10:30N 47°03' W 003°14'0 0.7
2017-May-23 09:59N 47°03' W 003°14'0 0.2
2017-May-23 08:03N 47°03' W 003°14'0 1.9
2017-May-23 07:49N 47°02' W 003°14'0 0.4
2017-May-23 07:14N 47°03' W 003°14'0 1.4
2017-May-23 06:57N 47°03' W 003°14'1 1.7
2017-May-23 06:07N 47°04' W 003°15'0 1.5
2017-May-23 05:55N 47°05' W 003°14'1 2.0
2017-May-23 05:26N 47°04' W 003°14'1 1.3
2017-May-23 04:56N 47°03' W 003°13'1 2.0
2017-May-23 04:25N 47°04' W 003°14'1 1.5
2017-May-23 03:54N 47°05' W 003°14'1 1.6
2017-May-23 03:17N 47°04' W 003°13'1 1.9
2017-May-23 02:49N 47°03' W 003°13'1 1.7
2017-May-23 02:20N 47°02' W 003°12'3 8.1
2017-May-23 01:57N 47°03' W 003°07'4 8.4
2017-May-23 01:27N 47°02' W 003°01'4 8.2
2017-May-23 00:57N 47°02' W 002°55'25 6.6
2017-May-22 21:05N 47°01' W 002°18'0 0.0
2017-May-22 21:00N 47°01' W 002°18'0 0.0
2017-May-22 20:30N 47°01' W 002°18'0 0.0
2017-May-22 19:51N 47°01' W 002°18'0 0.0
2017-May-22 19:23N 47°01' W 002°18'0 0.0
2017-May-22 18:50N 47°01' W 002°18'0 0.0
2017-May-22 18:03N 47°01' W 002°18'0 0.0
2017-May-22 18:00N 47°01' W 002°18'0 0.0
2017-May-22 17:22N 47°01' W 002°18'0 0.0
2017-May-22 16:20N 47°01' W 002°18'0 0.0
2017-May-22 15:58N 47°01' W 002°18'0 0.0
2017-May-22 15:27N 47°01' W 002°18'0 0.0
2017-May-22 13:51N 47°01' W 002°18'1 0.2
2017-May-22 10:52N 47°02' W 002°18'3 9.1
2017-May-22 10:30N 47°01' W 002°22'510.1
2017-May-22 10:00N 46°60' W 002°30'610.1
2017-May-22 09:24N 46°58' W 002°38'23 9.7
2017-May-22 07:01N 46°52' W 003°11'1 9.5
2017-May-22 06:55N 46°52' W 003°12'1 0.4
2017-May-22 03:59N 46°51' W 003°13'13 0.8
2017-May-21 12:09N 47°04' W 003°13'1 0.3
2017-May-21 09:29N 47°05' W 003°14'1 0.8
2017-May-21 08:13N 47°03' W 003°14'3 0.8
2017-May-21 05:04N 47°06' W 003°16'0 0.0
2017-May-21 04:55N 47°06' W 003°16'0 0.0
2017-May-21 03:55N 47°06' W 003°16'0 0.0
2017-May-21 02:46N 47°06' W 003°16'40 1.6
2017-May-20 01:55N 47°02' W 002°18'0 0.6
2017-May-20 01:25N 47°01' W 002°18'0 0.0
2017-May-20 00:58N 47°01' W 002°18'0 0.0
2017-May-20 00:30N 47°02' W 002°18'0 0.0
2017-May-19 23:58N 47°01' W 002°18'0 0.0
2017-May-19 23:24N 47°01' W 002°18'0 0.0
2017-May-19 22:58N 47°01' W 002°18'0 0.0
2017-May-19 22:30N 47°01' W 002°18'0 0.0
2017-May-19 21:30N 47°01' W 002°18'0 0.0
2017-May-19 20:52N 47°01' W 002°18'0 0.0
2017-May-19 20:27N 47°01' W 002°18'0 0.0
2017-May-19 19:58N 47°01' W 002°18'0 0.0
2017-May-19 19:00N 47°02' W 002°18'  

Dump ship's entire track history